sensor_id;sensor_type;location;lat;lon;timestamp;P1;durP1;ratioP1;P2;durP2;ratioP2
53688;SDS011;39583;54.682;30.662;2022-09-16T07:19:16;57.17;;;53.83;;
53688;SDS011;39583;54.682;30.662;2022-09-16T07:21:42;27.58;;;25.83;;
53688;SDS011;39583;54.682;30.662;2022-09-16T07:24:09;20.45;;;18.83;;
53688;SDS011;39583;54.682;30.662;2022-09-16T07:26:38;40.55;;;20.33;;
53688;SDS011;39583;54.682;30.662;2022-09-16T07:29:05;17.05;;;15.68;;
53688;SDS011;39583;54.682;30.662;2022-09-16T07:31:35;14.85;;;13.68;;
53688;SDS011;39583;54.682;30.662;2022-09-16T07:34:02;20.08;;;8.90;;
53688;SDS011;39583;54.682;30.662;2022-09-16T07:36:31;9.32;;;6.78;;
53688;SDS011;39583;54.682;30.662;2022-09-16T07:39:02;6.32;;;5.72;;
53688;SDS011;39583;54.682;30.662;2022-09-16T07:41:30;4.35;;;3.80;;
53688;SDS011;39583;54.682;30.662;2022-09-16T07:43:59;4.90;;;4.45;;
53688;SDS011;39583;54.682;30.662;2022-09-16T07:46:26;5.28;;;2.83;;
53688;SDS011;39583;54.682;30.662;2022-09-16T07:48:54;3.22;;;2.92;;
53688;SDS011;39583;54.682;30.662;2022-09-16T07:51:22;4.93;;;3.25;;
53688;SDS011;39583;54.682;30.662;2022-09-16T07:53:52;7.90;;;3.25;;
53688;SDS011;39583;54.682;30.662;2022-09-16T07:56:20;5.78;;;2.83;;
53688;SDS011;39583;54.682;30.662;2022-09-16T07:58:50;5.38;;;3.28;;
53688;SDS011;39583;54.682;30.662;2022-09-16T08:01:17;9.52;;;8.93;;
53688;SDS011;39583;54.682;30.662;2022-09-16T08:03:44;5.40;;;5.00;;
53688;SDS011;39583;54.682;30.662;2022-09-16T08:06:14;2.85;;;2.63;;
53688;SDS011;39583;54.682;30.662;2022-09-16T08:08:42;3.65;;;2.63;;
53688;SDS011;39583;54.682;30.662;2022-09-16T08:11:10;5.15;;;4.65;;
53688;SDS011;39583;54.682;30.662;2022-09-16T08:13:37;5.97;;;5.53;;
53688;SDS011;39583;54.682;30.662;2022-09-16T08:16:05;4.50;;;3.38;;
53688;SDS011;39583;54.682;30.662;2022-09-16T08:18:35;5.47;;;2.85;;
53688;SDS011;39583;54.682;30.662;2022-09-16T08:21:05;4.72;;;2.80;;
53688;SDS011;39583;54.682;30.662;2022-09-16T08:23:40;3.58;;;2.85;;
53688;SDS011;39583;54.682;30.662;2022-09-16T08:26:07;2.90;;;2.22;;
53688;SDS011;39583;54.682;30.662;2022-09-16T08:28:38;6.43;;;5.95;;
53688;SDS011;39583;54.682;30.662;2022-09-16T08:31:06;5.03;;;4.72;;
53688;SDS011;39583;54.682;30.662;2022-09-16T08:33:33;8.88;;;8.30;;
53688;SDS011;39583;54.682;30.662;2022-09-16T08:36:01;3.42;;;2.08;;
53688;SDS011;39583;54.682;30.662;2022-09-16T08:43:54;7.40;;;2.72;;
53688;SDS011;39583;54.682;30.662;2022-09-16T08:52:06;2.17;;;1.80;;
53688;SDS011;39583;54.682;30.662;2022-09-16T08:54:55;4.47;;;4.13;;
53688;SDS011;39583;54.682;30.662;2022-09-16T08:57:26;9.18;;;7.95;;
53688;SDS011;39583;54.682;30.662;2022-09-16T08:59:59;6.40;;;6.05;;
53688;SDS011;39583;54.682;30.662;2022-09-16T09:05:29;3.65;;;2.45;;
53688;SDS011;39583;54.682;30.662;2022-09-16T13:49:37;3.67;;;3.38;;
53688;SDS011;39583;54.682;30.662;2022-09-16T13:52:09;8.60;;;3.00;;
53688;SDS011;39583;54.682;30.662;2022-09-16T13:54:41;4.47;;;2.08;;
53688;SDS011;39583;54.682;30.662;2022-09-16T13:57:24;2.22;;;1.60;;
53688;SDS011;39583;54.682;30.662;2022-09-16T14:13:54;2.40;;;1.13;;
53688;SDS011;39583;54.682;30.662;2022-09-16T14:16:27;5.25;;;1.98;;
53688;SDS011;39583;54.682;30.662;2022-09-16T14:19:01;2.00;;;1.67;;
53688;SDS011;39583;54.682;30.662;2022-09-16T14:21:31;2.78;;;1.38;;
53688;SDS011;39583;54.682;30.662;2022-09-16T14:24:10;4.90;;;1.70;;
53688;SDS011;39583;54.682;30.662;2022-09-16T14:26:52;2.83;;;1.27;;
53688;SDS011;39583;54.682;30.662;2022-09-16T14:29:20;3.90;;;2.13;;
53688;SDS011;39583;54.682;30.662;2022-09-16T14:31:47;3.30;;;1.83;;
53688;SDS011;39583;54.682;30.662;2022-09-16T14:34:14;2.40;;;1.42;;
53688;SDS011;39583;54.682;30.662;2022-09-16T14:36:48;2.58;;;1.63;;
53688;SDS011;39583;54.682;30.662;2022-09-16T14:39:15;4.65;;;1.75;;
53688;SDS011;39583;54.682;30.662;2022-09-16T14:46:50;5.82;;;2.05;;
53688;SDS011;39583;54.682;30.662;2022-09-16T14:49:20;3.10;;;2.35;;
53688;SDS011;39583;54.682;30.662;2022-09-16T14:51:52;3.67;;;2.08;;
53688;SDS011;39583;54.682;30.662;2022-09-16T14:54:24;1.83;;;1.73;;
53688;SDS011;39583;54.682;30.662;2022-09-16T14:56:55;2.90;;;1.35;;
53688;SDS011;39583;54.682;30.662;2022-09-16T14:59:35;3.45;;;1.48;;
53688;SDS011;39583;54.682;30.662;2022-09-16T15:05:14;2.20;;;1.23;;
53688;SDS011;39583;54.682;30.662;2022-09-16T15:07:46;2.25;;;1.80;;
53688;SDS011;39583;54.682;30.662;2022-09-16T15:10:19;1.95;;;1.40;;
53688;SDS011;39583;54.682;30.662;2022-09-16T15:12:49;3.13;;;1.70;;
53688;SDS011;39583;54.682;30.662;2022-09-16T15:15:28;3.60;;;1.70;;
53688;SDS011;39583;54.682;30.662;2022-09-16T15:17:58;2.50;;;1.55;;
53688;SDS011;39583;54.682;30.662;2022-09-16T15:20:35;4.53;;;2.00;;
53688;SDS011;39583;54.682;30.662;2022-09-16T15:23:05;7.03;;;1.50;;
53688;SDS011;39583;54.682;30.662;2022-09-16T15:25:50;3.90;;;1.73;;
53688;SDS011;39583;54.682;30.662;2022-09-16T15:28:20;5.70;;;1.52;;
53688;SDS011;39583;54.682;30.662;2022-09-16T15:30:48;5.43;;;1.80;;
53688;SDS011;39583;54.682;30.662;2022-09-16T15:35:59;3.95;;;1.60;;
53688;SDS011;39583;54.682;30.662;2022-09-16T15:38:29;5.75;;;1.77;;
53688;SDS011;39583;54.682;30.662;2022-09-16T15:41:02;3.40;;;1.60;;
53688;SDS011;39583;54.682;30.662;2022-09-16T15:43:34;3.55;;;1.73;;
53688;SDS011;39583;54.682;30.662;2022-09-16T15:46:14;3.78;;;1.83;;
53688;SDS011;39583;54.682;30.662;2022-09-16T15:48:47;10.27;;;2.55;;
53688;SDS011;39583;54.682;30.662;2022-09-16T15:53:52;5.93;;;2.90;;
53688;SDS011;39583;54.682;30.662;2022-09-16T15:56:32;5.63;;;2.80;;
53688;SDS011;39583;54.682;30.662;2022-09-16T16:01:57;4.87;;;2.70;;
53688;SDS011;39583;54.682;30.662;2022-09-16T16:04:29;4.78;;;2.05;;
53688;SDS011;39583;54.682;30.662;2022-09-16T16:06:58;6.25;;;2.35;;
53688;SDS011;39583;54.682;30.662;2022-09-16T16:11:55;6.03;;;2.63;;
53688;SDS011;39583;54.682;30.662;2022-09-16T16:14:23;3.65;;;1.95;;
53688;SDS011;39583;54.682;30.662;2022-09-16T16:16:52;6.88;;;2.08;;
53688;SDS011;39583;54.682;30.662;2022-09-16T16:19:19;6.35;;;2.63;;
53688;SDS011;39583;54.682;30.662;2022-09-16T16:21:46;6.35;;;1.90;;
53688;SDS011;39583;54.682;30.662;2022-09-16T16:24:12;3.53;;;1.67;;
53688;SDS011;39583;54.682;30.662;2022-09-16T16:26:39;4.20;;;1.80;;
53688;SDS011;39583;54.682;30.662;2022-09-16T16:29:06;2.95;;;1.48;;
53688;SDS011;39583;54.682;30.662;2022-09-16T16:31:33;3.40;;;1.63;;
53688;SDS011;39583;54.682;30.662;2022-09-16T16:34:01;5.53;;;1.38;;
53688;SDS011;39583;54.682;30.662;2022-09-16T16:36:28;3.05;;;1.40;;
53688;SDS011;39583;54.682;30.662;2022-09-16T16:38:54;3.25;;;1.48;;
53688;SDS011;39583;54.682;30.662;2022-09-16T16:41:21;7.65;;;1.48;;
53688;SDS011;39583;54.682;30.662;2022-09-16T16:43:49;2.53;;;1.60;;
53688;SDS011;39583;54.682;30.662;2022-09-16T16:46:16;11.27;;;1.65;;
53688;SDS011;39583;54.682;30.662;2022-09-16T16:48:43;6.68;;;1.40;;
53688;SDS011;39583;54.682;30.662;2022-09-16T16:51:10;3.13;;;1.30;;
53688;SDS011;39583;54.682;30.662;2022-09-16T16:53:37;2.67;;;1.70;;
53688;SDS011;39583;54.682;30.662;2022-09-16T16:56:08;1.85;;;1.30;;
53688;SDS011;39583;54.682;30.662;2022-09-16T16:58:37;2.53;;;1.40;;
53688;SDS011;39583;54.682;30.662;2022-09-16T17:01:14;2.47;;;1.42;;
53688;SDS011;39583;54.682;30.662;2022-09-16T17:03:42;2.10;;;1.40;;
53688;SDS011;39583;54.682;30.662;2022-09-16T17:06:11;15.35;;;1.80;;
53688;SDS011;39583;54.682;30.662;2022-09-16T17:08:37;4.35;;;1.40;;
53688;SDS011;39583;54.682;30.662;2022-09-16T17:11:07;5.07;;;1.60;;
53688;SDS011;39583;54.682;30.662;2022-09-16T17:13:36;3.40;;;1.10;;
53688;SDS011;39583;54.682;30.662;2022-09-16T17:16:03;1.65;;;1.00;;
53688;SDS011;39583;54.682;30.662;2022-09-16T17:18:32;2.60;;;1.45;;
53688;SDS011;39583;54.682;30.662;2022-09-16T17:21:03;8.07;;;1.60;;
53688;SDS011;39583;54.682;30.662;2022-09-16T17:23:32;5.90;;;1.48;;
53688;SDS011;39583;54.682;30.662;2022-09-16T17:25:59;4.00;;;1.20;;
53688;SDS011;39583;54.682;30.662;2022-09-16T17:28:26;2.25;;;1.38;;
53688;SDS011;39583;54.682;30.662;2022-09-16T17:30:53;2.25;;;1.35;;
53688;SDS011;39583;54.682;30.662;2022-09-16T17:33:19;4.65;;;1.58;;
53688;SDS011;39583;54.682;30.662;2022-09-16T17:35:46;8.77;;;1.60;;
53688;SDS011;39583;54.682;30.662;2022-09-16T17:38:13;4.40;;;1.65;;
53688;SDS011;39583;54.682;30.662;2022-09-16T17:40:39;4.55;;;1.73;;
53688;SDS011;39583;54.682;30.662;2022-09-16T17:43:06;3.15;;;1.65;;
53688;SDS011;39583;54.682;30.662;2022-09-16T17:45:32;6.43;;;1.52;;
53688;SDS011;39583;54.682;30.662;2022-09-16T17:47:58;2.65;;;1.27;;
53688;SDS011;39583;54.682;30.662;2022-09-16T17:50:25;3.88;;;1.30;;
53688;SDS011;39583;54.682;30.662;2022-09-16T17:52:52;4.35;;;1.70;;
53688;SDS011;39583;54.682;30.662;2022-09-16T17:55:18;4.20;;;1.63;;
53688;SDS011;39583;54.682;30.662;2022-09-16T17:57:44;4.72;;;1.63;;
53688;SDS011;39583;54.682;30.662;2022-09-16T18:00:11;3.72;;;1.35;;
53688;SDS011;39583;54.682;30.662;2022-09-16T18:02:38;2.90;;;1.30;;
53688;SDS011;39583;54.682;30.662;2022-09-16T18:05:06;7.35;;;1.35;;
53688;SDS011;39583;54.682;30.662;2022-09-16T18:07:33;4.30;;;1.60;;
53688;SDS011;39583;54.682;30.662;2022-09-16T18:10:02;3.13;;;1.30;;
53688;SDS011;39583;54.682;30.662;2022-09-16T18:12:29;1.92;;;1.40;;
53688;SDS011;39583;54.682;30.662;2022-09-16T18:14:56;1.88;;;1.20;;
53688;SDS011;39583;54.682;30.662;2022-09-16T18:17:23;3.70;;;1.60;;
53688;SDS011;39583;54.682;30.662;2022-09-16T18:19:52;4.38;;;1.70;;
53688;SDS011;39583;54.682;30.662;2022-09-16T18:22:19;3.30;;;1.73;;
53688;SDS011;39583;54.682;30.662;2022-09-16T18:24:45;2.85;;;1.50;;
53688;SDS011;39583;54.682;30.662;2022-09-16T18:27:12;3.60;;;1.20;;
53688;SDS011;39583;54.682;30.662;2022-09-16T18:29:41;2.35;;;1.60;;
53688;SDS011;39583;54.682;30.662;2022-09-16T18:32:08;1.83;;;1.40;;
53688;SDS011;39583;54.682;30.662;2022-09-16T18:34:34;3.85;;;1.85;;
53688;SDS011;39583;54.682;30.662;2022-09-16T18:37:01;2.15;;;1.30;;
53688;SDS011;39583;54.682;30.662;2022-09-16T18:39:27;7.72;;;1.40;;
53688;SDS011;39583;54.682;30.662;2022-09-16T18:41:54;2.90;;;1.42;;
53688;SDS011;39583;54.682;30.662;2022-09-16T18:44:21;3.42;;;1.40;;
53688;SDS011;39583;54.682;30.662;2022-09-16T18:46:52;3.63;;;1.77;;
53688;SDS011;39583;54.682;30.662;2022-09-16T18:49:19;3.45;;;2.03;;
